This is the latest recevied weather packets stored in our database for station/object DB0HOL-4. If no packets are shown the sender has not sent any weather packets the latest 10 day(s).
| Time | Temp. | Humidity | Pressure | Rain* | Wind** | Luminosity | Snow |
|---|---|---|---|---|---|---|---|
| 1777584397 | 11.11° C | 57% | 1027.4 hPa | 0 mm | - | 0 W/m² | - |
| 1777582597 | 11.11° C | 57% | 1027.4 hPa | 0 mm | - | 0 W/m² | - |
| 1777580798 | 11.67° C | 56% | 1027.4 hPa | 0 mm | - | 0 W/m² | - |
| 1777578998 | 12.22° C | 55% | 1027 hPa | 0 mm | - | 0 W/m² | - |
| 1777577311 | 12.22° C | 54% | 1027.4 hPa | 0 mm | - | 8 W/m² | - |
| 1777577197 | 12.22° C | 54% | 1027.4 hPa | 0 mm | - | 8 W/m² | - |
| 1777575396 | 13.33° C | 52% | 1026.7 hPa | 0 mm | - | 160 W/m² | - |
| 1777573597 | 13.89° C | 50% | 1026.7 hPa | 0 mm | - | 433 W/m² | - |
| 1777571798 | 14.44° C | 46% | 1026.7 hPa | 0 mm | - | 828 W/m² | - |
| 1777569997 | 14.44° C | 47% | 1027 hPa | 0 mm | - | 171 W/m² | - |
| 1777568197 | 14.44° C | 44% | 1027.4 hPa | 0 mm | - | 230 W/m² | - |
| 1777566397 | 14.44° C | 46% | 1027 hPa | 0 mm | - | 329 W/m² | - |
| 1777564597 | 15° C | 45% | 1027 hPa | 0 mm | - | 378 W/m² | - |
| 1777562797 | 15° C | 42% | 1027.4 hPa | 0 mm | - | 444 W/m² | - |
| 1777560997 | 14.44° C | 44% | 1027.7 hPa | 0 mm | - | 501 W/m² | - |
| 1777559197 | 14.44° C | 43% | 1028.1 hPa | 0 mm | - | 124 W/m² | - |
| 1777557397 | 13.33° C | 43% | 1028.7 hPa | 0 mm | - | 572 W/m² | - |
| 1777555596 | 13.33° C | 42% | 1028.7 hPa | 0 mm | - | 549 W/m² | - |
| 1777553797 | 12.78° C | 44% | 1029.1 hPa | 0 mm | - | 619 W/m² | - |
| 1777551997 | 12.78° C | 43% | 1029.4 hPa | 0 mm | - | 618 W/m² | - |
| 1777550198 | 11.67° C | 41% | 1029.4 hPa | 0 mm | - | 625 W/m² | - |
| 1777548398 | 11.11° C | 44% | 1030.1 hPa | 0 mm | - | 628 W/m² | - |
| 1777546597 | 10.56° C | 43% | 1030.4 hPa | 0 mm | - | 639 W/m² | - |
| 1777544797 | 10.56° C | 42% | 1030.1 hPa | 0 mm | - | 679 W/m² | - |
| 1777542997 | 9.44° C | 43% | 1030.1 hPa | 0 mm | - | 636 W/m² | - |
* Rain latest hour (hover to see other rain measurements)
** Current wind speed in m/s (hover to see current wind gust speed)